sensor_id;sensor_type;location;lat;lon;timestamp;pressure;altitude;pressure_sealevel;temperature;humidity
52653;BME280;39353;42.864;12.014;2023-12-20T00:01:08;97700.77;;;19.86;46.94
52653;BME280;39353;42.864;12.014;2023-12-20T00:03:42;97697.14;;;19.86;46.92
52653;BME280;39353;42.864;12.014;2023-12-20T00:06:09;97696.02;;;19.88;46.95
52653;BME280;39353;42.864;12.014;2023-12-20T00:08:36;97690.94;;;19.88;46.93
52653;BME280;39353;42.864;12.014;2023-12-20T00:11:03;97681.47;;;19.88;46.92
52653;BME280;39353;42.864;12.014;2023-12-20T00:13:30;97678.84;;;19.89;46.84
52653;BME280;39353;42.864;12.014;2023-12-20T00:15:56;97678.54;;;19.89;46.87
52653;BME280;39353;42.864;12.014;2023-12-20T00:18:23;97675.33;;;19.89;46.98
52653;BME280;39353;42.864;12.014;2023-12-20T00:20:50;97674.93;;;19.88;46.72
52653;BME280;39353;42.864;12.014;2023-12-20T00:23:17;97675.64;;;19.87;46.87
52653;BME280;39353;42.864;12.014;2023-12-20T00:25:44;97668.32;;;19.84;46.84
52653;BME280;39353;42.864;12.014;2023-12-20T00:28:11;97661.20;;;19.82;46.94
52653;BME280;39353;42.864;12.014;2023-12-20T00:30:38;97654.55;;;19.81;47.07
52653;BME280;39353;42.864;12.014;2023-12-20T00:33:04;97649.74;;;19.78;46.81
52653;BME280;39353;42.864;12.014;2023-12-20T00:35:31;97648.10;;;19.77;46.89
52653;BME280;39353;42.864;12.014;2023-12-20T00:37:59;97649.23;;;19.75;46.99
52653;BME280;39353;42.864;12.014;2023-12-20T00:40:25;97643.46;;;19.73;47.01
52653;BME280;39353;42.864;12.014;2023-12-20T00:42:52;97643.73;;;19.73;46.99
52653;BME280;39353;42.864;12.014;2023-12-20T00:45:19;97642.65;;;19.72;46.98
52653;BME280;39353;42.864;12.014;2023-12-20T00:47:46;97642.83;;;19.71;47.01
52653;BME280;39353;42.864;12.014;2023-12-20T00:50:12;97639.98;;;19.69;47.06
52653;BME280;39353;42.864;12.014;2023-12-20T00:52:39;97640.02;;;19.68;46.95
52653;BME280;39353;42.864;12.014;2023-12-20T00:55:06;97637.30;;;19.66;47.01
52653;BME280;39353;42.864;12.014;2023-12-20T00:57:33;97638.02;;;19.65;47.26
52653;BME280;39353;42.864;12.014;2023-12-20T00:59:59;97636.71;;;19.63;47.15
52653;BME280;39353;42.864;12.014;2023-12-20T01:02:27;97636.06;;;19.62;47.20
52653;BME280;39353;42.864;12.014;2023-12-20T01:04:53;97641.05;;;19.61;47.28
52653;BME280;39353;42.864;12.014;2023-12-20T01:07:20;97637.32;;;19.60;47.11
52653;BME280;39353;42.864;12.014;2023-12-20T01:09:47;97637.45;;;19.60;47.23
52653;BME280;39353;42.864;12.014;2023-12-20T01:12:14;97634.65;;;19.59;47.33
52653;BME280;39353;42.864;12.014;2023-12-20T01:14:41;97631.43;;;19.58;47.37
52653;BME280;39353;42.864;12.014;2023-12-20T01:17:09;97631.01;;;19.58;47.10
52653;BME280;39353;42.864;12.014;2023-12-20T01:19:36;97634.16;;;19.56;47.28
52653;BME280;39353;42.864;12.014;2023-12-20T01:22:03;97633.41;;;19.55;47.25
52653;BME280;39353;42.864;12.014;2023-12-20T01:24:30;97632.98;;;19.54;47.36
52653;BME280;39353;42.864;12.014;2023-12-20T01:26:57;97630.77;;;19.53;47.37
52653;BME280;39353;42.864;12.014;2023-12-20T01:29:24;97629.19;;;19.53;47.46
52653;BME280;39353;42.864;12.014;2023-12-20T01:31:51;97627.09;;;19.50;47.27
52653;BME280;39353;42.864;12.014;2023-12-20T01:34:18;97628.98;;;19.50;47.49
52653;BME280;39353;42.864;12.014;2023-12-20T01:36:44;97623.08;;;19.49;47.42
52653;BME280;39353;42.864;12.014;2023-12-20T01:39:11;97619.68;;;19.49;47.45
52653;BME280;39353;42.864;12.014;2023-12-20T01:41:38;97615.17;;;19.47;47.51
52653;BME280;39353;42.864;12.014;2023-12-20T01:44:05;97613.02;;;19.46;47.35
52653;BME280;39353;42.864;12.014;2023-12-20T01:46:32;97607.24;;;19.44;47.42
52653;BME280;39353;42.864;12.014;2023-12-20T01:48:59;97601.92;;;19.43;47.37
52653;BME280;39353;42.864;12.014;2023-12-20T01:51:27;97594.80;;;19.42;47.47
52653;BME280;39353;42.864;12.014;2023-12-20T01:53:57;97591.55;;;19.41;47.45
52653;BME280;39353;42.864;12.014;2023-12-20T01:56:26;97592.34;;;19.41;47.54
52653;BME280;39353;42.864;12.014;2023-12-20T01:58:57;97585.02;;;19.40;47.55
52653;BME280;39353;42.864;12.014;2023-12-20T02:01:24;97579.58;;;19.39;47.44
52653;BME280;39353;42.864;12.014;2023-12-20T02:03:52;97575.44;;;19.37;47.60
52653;BME280;39353;42.864;12.014;2023-12-20T02:06:21;97571.13;;;19.35;47.64
52653;BME280;39353;42.864;12.014;2023-12-20T02:08:50;97568.41;;;19.34;47.56
52653;BME280;39353;42.864;12.014;2023-12-20T02:11:16;97568.29;;;19.33;47.50
52653;BME280;39353;42.864;12.014;2023-12-20T02:13:43;97567.50;;;19.33;47.44
52653;BME280;39353;42.864;12.014;2023-12-20T02:16:10;97563.19;;;19.31;47.63
52653;BME280;39353;42.864;12.014;2023-12-20T02:18:37;97556.00;;;19.29;47.65
52653;BME280;39353;42.864;12.014;2023-12-20T02:21:05;97557.17;;;19.29;47.49
52653;BME280;39353;42.864;12.014;2023-12-20T02:23:32;97556.34;;;19.28;47.53
52653;BME280;39353;42.864;12.014;2023-12-20T02:25:59;97553.37;;;19.27;47.67
52653;BME280;39353;42.864;12.014;2023-12-20T02:28:26;97547.81;;;19.26;47.66
52653;BME280;39353;42.864;12.014;2023-12-20T02:30:53;97541.96;;;19.25;47.69
52653;BME280;39353;42.864;12.014;2023-12-20T02:33:20;97538.19;;;19.23;47.77
52653;BME280;39353;42.864;12.014;2023-12-20T02:35:47;97530.58;;;19.23;47.78
52653;BME280;39353;42.864;12.014;2023-12-20T02:38:14;97527.52;;;19.23;47.75
52653;BME280;39353;42.864;12.014;2023-12-20T02:40:41;97522.24;;;19.22;47.75
52653;BME280;39353;42.864;12.014;2023-12-20T02:43:07;97515.14;;;19.21;47.74
52653;BME280;39353;42.864;12.014;2023-12-20T02:45:34;97512.52;;;19.20;47.79
52653;BME280;39353;42.864;12.014;2023-12-20T02:48:01;97511.90;;;19.19;47.82
52653;BME280;39353;42.864;12.014;2023-12-20T02:50:28;97510.89;;;19.18;47.88
52653;BME280;39353;42.864;12.014;2023-12-20T02:52:55;97506.63;;;19.18;47.73
52653;BME280;39353;42.864;12.014;2023-12-20T02:55:21;97503.11;;;19.17;47.86
52653;BME280;39353;42.864;12.014;2023-12-20T02:57:48;97500.31;;;19.16;47.81
52653;BME280;39353;42.864;12.014;2023-12-20T03:00:15;97498.59;;;19.16;47.79
52653;BME280;39353;42.864;12.014;2023-12-20T03:02:42;97494.63;;;19.15;47.79
52653;BME280;39353;42.864;12.014;2023-12-20T03:05:08;97489.73;;;19.14;47.62
52653;BME280;39353;42.864;12.014;2023-12-20T03:07:37;97489.83;;;19.13;48.04
52653;BME280;39353;42.864;12.014;2023-12-20T03:10:05;97483.84;;;19.12;47.95
52653;BME280;39353;42.864;12.014;2023-12-20T03:12:34;97479.77;;;19.13;47.85
52653;BME280;39353;42.864;12.014;2023-12-20T03:15:00;97472.45;;;19.12;47.86
52653;BME280;39353;42.864;12.014;2023-12-20T03:17:27;97470.31;;;19.12;47.86
52653;BME280;39353;42.864;12.014;2023-12-20T03:19:54;97467.97;;;19.12;47.74
52653;BME280;39353;42.864;12.014;2023-12-20T03:22:20;97466.31;;;19.11;47.91
52653;BME280;39353;42.864;12.014;2023-12-20T03:24:47;97462.88;;;19.09;47.84
52653;BME280;39353;42.864;12.014;2023-12-20T03:27:14;97464.64;;;19.09;47.92
52653;BME280;39353;42.864;12.014;2023-12-20T03:29:40;97461.80;;;19.09;47.94
52653;BME280;39353;42.864;12.014;2023-12-20T03:32:07;97457.53;;;19.08;48.05
52653;BME280;39353;42.864;12.014;2023-12-20T03:34:35;97451.67;;;19.08;47.95
52653;BME280;39353;42.864;12.014;2023-12-20T03:37:02;97451.08;;;19.08;48.01
52653;BME280;39353;42.864;12.014;2023-12-20T03:39:28;97450.34;;;19.07;48.05
52653;BME280;39353;42.864;12.014;2023-12-20T03:41:55;97452.86;;;19.06;48.06
52653;BME280;39353;42.864;12.014;2023-12-20T03:44:21;97443.78;;;19.04;48.03
52653;BME280;39353;42.864;12.014;2023-12-20T03:46:48;97441.12;;;19.04;47.92
52653;BME280;39353;42.864;12.014;2023-12-20T03:49:15;97441.61;;;19.03;47.95
52653;BME280;39353;42.864;12.014;2023-12-20T03:51:43;97439.45;;;19.03;47.95
52653;BME280;39353;42.864;12.014;2023-12-20T03:54:10;97437.93;;;19.02;48.17
52653;BME280;39353;42.864;12.014;2023-12-20T03:56:36;97431.79;;;19.02;48.11
52653;BME280;39353;42.864;12.014;2023-12-20T03:59:03;97428.98;;;19.01;48.09
52653;BME280;39353;42.864;12.014;2023-12-20T04:01:30;97429.45;;;19.00;48.10
52653;BME280;39353;42.864;12.014;2023-12-20T04:03:57;97429.78;;;18.99;48.09
52653;BME280;39353;42.864;12.014;2023-12-20T04:06:24;97430.04;;;18.99;48.07
52653;BME280;39353;42.864;12.014;2023-12-20T04:08:50;97424.68;;;18.98;47.95
52653;BME280;39353;42.864;12.014;2023-12-20T04:11:17;97425.36;;;18.97;47.97
52653;BME280;39353;42.864;12.014;2023-12-20T04:13:45;97423.48;;;18.96;48.06
52653;BME280;39353;42.864;12.014;2023-12-20T04:16:12;97421.14;;;18.96;48.09
52653;BME280;39353;42.864;12.014;2023-12-20T04:18:39;97418.38;;;18.97;48.00
52653;BME280;39353;42.864;12.014;2023-12-20T04:21:06;97415.45;;;18.96;48.05
52653;BME280;39353;42.864;12.014;2023-12-20T04:23:33;97415.15;;;18.95;47.95
52653;BME280;39353;42.864;12.014;2023-12-20T04:26:00;97417.72;;;18.95;47.92
52653;BME280;39353;42.864;12.014;2023-12-20T04:28:27;97415.59;;;18.94;48.06
52653;BME280;39353;42.864;12.014;2023-12-20T04:30:56;97416.48;;;18.93;47.99
52653;BME280;39353;42.864;12.014;2023-12-20T04:33:23;97413.60;;;18.93;48.01
52653;BME280;39353;42.864;12.014;2023-12-20T04:35:50;97409.96;;;18.92;48.06
52653;BME280;39353;42.864;12.014;2023-12-20T04:38:18;97410.05;;;18.91;48.20
52653;BME280;39353;42.864;12.014;2023-12-20T04:40:44;97408.51;;;18.91;47.97
52653;BME280;39353;42.864;12.014;2023-12-20T04:43:11;97406.63;;;18.90;48.09
52653;BME280;39353;42.864;12.014;2023-12-20T04:45:38;97399.98;;;18.88;48.19
52653;BME280;39353;42.864;12.014;2023-12-20T04:48:05;97396.19;;;18.86;48.15
52653;BME280;39353;42.864;12.014;2023-12-20T04:50:32;97392.98;;;18.85;48.17
52653;BME280;39353;42.864;12.014;2023-12-20T04:52:59;97391.89;;;18.85;48.10
52653;BME280;39353;42.864;12.014;2023-12-20T04:55:26;97391.95;;;18.84;48.15
52653;BME280;39353;42.864;12.014;2023-12-20T04:57:53;97390.25;;;18.84;48.15
52653;BME280;39353;42.864;12.014;2023-12-20T05:00:21;97391.77;;;18.83;48.21
52653;BME280;39353;42.864;12.014;2023-12-20T05:02:48;97396.77;;;18.82;48.13
52653;BME280;39353;42.864;12.014;2023-12-20T05:05:14;97397.58;;;18.82;48.22
52653;BME280;39353;42.864;12.014;2023-12-20T05:07:44;97399.13;;;18.81;48.18
52653;BME280;39353;42.864;12.014;2023-12-20T05:10:11;97393.86;;;18.80;48.29
52653;BME280;39353;42.864;12.014;2023-12-20T05:12:37;97391.79;;;18.79;48.40
52653;BME280;39353;42.864;12.014;2023-12-20T05:15:06;97388.11;;;18.78;48.26
52653;BME280;39353;42.864;12.014;2023-12-20T05:17:33;97389.20;;;18.78;48.18
52653;BME280;39353;42.864;12.014;2023-12-20T05:20:01;97386.94;;;18.78;48.21
52653;BME280;39353;42.864;12.014;2023-12-20T05:22:27;97380.83;;;18.77;48.28
52653;BME280;39353;42.864;12.014;2023-12-20T05:24:54;97381.46;;;18.77;48.27
52653;BME280;39353;42.864;12.014;2023-12-20T05:27:21;97379.75;;;18.76;48.23
52653;BME280;39353;42.864;12.014;2023-12-20T05:29:48;97377.20;;;18.76;48.41
52653;BME280;39353;42.864;12.014;2023-12-20T05:32:15;97373.70;;;18.75;48.24
52653;BME280;39353;42.864;12.014;2023-12-20T05:34:42;97371.09;;;18.75;48.21
52653;BME280;39353;42.864;12.014;2023-12-20T05:37:09;97366.77;;;18.75;48.29
52653;BME280;39353;42.864;12.014;2023-12-20T05:39:35;97357.98;;;18.75;48.27
52653;BME280;39353;42.864;12.014;2023-12-20T05:42:03;97356.09;;;18.74;48.33
52653;BME280;39353;42.864;12.014;2023-12-20T05:44:29;97356.39;;;18.74;48.79
52653;BME280;39353;42.864;12.014;2023-12-20T05:46:56;97356.80;;;18.74;48.65
52653;BME280;39353;42.864;12.014;2023-12-20T05:49:23;97360.06;;;18.74;48.43
52653;BME280;39353;42.864;12.014;2023-12-20T05:51:50;97359.34;;;18.74;48.55
52653;BME280;39353;42.864;12.014;2023-12-20T05:54:18;97354.25;;;18.73;48.43
52653;BME280;39353;42.864;12.014;2023-12-20T05:56:44;97358.35;;;18.72;48.41
52653;BME280;39353;42.864;12.014;2023-12-20T05:59:11;97362.78;;;18.73;48.50
52653;BME280;39353;42.864;12.014;2023-12-20T06:01:38;97362.11;;;18.72;48.38
52653;BME280;39353;42.864;12.014;2023-12-20T06:04:04;97362.36;;;18.72;48.37
52653;BME280;39353;42.864;12.014;2023-12-20T06:06:31;97358.98;;;18.71;48.63
52653;BME280;39353;42.864;12.014;2023-12-20T06:08:58;97352.33;;;18.71;48.79
52653;BME280;39353;42.864;12.014;2023-12-20T06:11:26;97352.09;;;18.70;48.67
52653;BME280;39353;42.864;12.014;2023-12-20T06:13:53;97348.86;;;18.70;48.60
52653;BME280;39353;42.864;12.014;2023-12-20T06:16:20;97348.91;;;18.69;48.72
52653;BME280;39353;42.864;12.014;2023-12-20T06:18:46;97351.34;;;18.69;48.67
52653;BME280;39353;42.864;12.014;2023-12-20T06:21:13;97358.69;;;18.68;48.60
52653;BME280;39353;42.864;12.014;2023-12-20T06:23:41;97358.65;;;18.69;48.49
52653;BME280;39353;42.864;12.014;2023-12-20T06:26:08;97360.67;;;18.67;48.15
52653;BME280;39353;42.864;12.014;2023-12-20T06:28:34;97358.94;;;18.65;47.82
52653;BME280;39353;42.864;12.014;2023-12-20T06:31:01;97356.52;;;18.65;48.01
52653;BME280;39353;42.864;12.014;2023-12-20T06:33:28;97350.66;;;18.64;48.42
52653;BME280;39353;42.864;12.014;2023-12-20T06:35:55;97351.45;;;18.66;48.46
52653;BME280;39353;42.864;12.014;2023-12-20T06:38:22;97347.30;;;18.67;48.52
52653;BME280;39353;42.864;12.014;2023-12-20T06:40:49;97343.61;;;18.67;48.37
52653;BME280;39353;42.864;12.014;2023-12-20T06:43:16;97342.36;;;18.67;48.36
52653;BME280;39353;42.864;12.014;2023-12-20T06:45:42;97338.44;;;18.67;48.29
52653;BME280;39353;42.864;12.014;2023-12-20T06:48:09;97341.70;;;18.64;47.71
52653;BME280;39353;42.864;12.014;2023-12-20T06:50:38;97342.48;;;18.60;47.82
52653;BME280;39353;42.864;12.014;2023-12-20T06:53:07;97343.72;;;18.60;47.84
52653;BME280;39353;42.864;12.014;2023-12-20T06:55:35;97348.34;;;18.59;47.94
52653;BME280;39353;42.864;12.014;2023-12-20T06:58:03;97349.34;;;18.60;47.99
52653;BME280;39353;42.864;12.014;2023-12-20T07:00:30;97342.95;;;18.60;47.85
52653;BME280;39353;42.864;12.014;2023-12-20T07:02:57;97337.98;;;18.58;47.39
52653;BME280;39353;42.864;12.014;2023-12-20T07:05:24;97333.88;;;18.56;47.18
52653;BME280;39353;42.864;12.014;2023-12-20T07:07:51;97332.50;;;18.57;47.87
52653;BME280;39353;42.864;12.014;2023-12-20T07:10:18;97334.16;;;18.57;47.58
52653;BME280;39353;42.864;12.014;2023-12-20T07:12:45;97337.67;;;18.59;47.50
52653;BME280;39353;42.864;12.014;2023-12-20T07:15:12;97337.80;;;18.61;47.70
52653;BME280;39353;42.864;12.014;2023-12-20T07:17:38;97329.60;;;18.63;47.92
52653;BME280;39353;42.864;12.014;2023-12-20T07:20:06;97331.54;;;18.65;47.75
52653;BME280;39353;42.864;12.014;2023-12-20T07:22:36;97329.99;;;18.67;47.87
52653;BME280;39353;42.864;12.014;2023-12-20T07:25:03;97328.05;;;18.70;47.96
52653;BME280;39353;42.864;12.014;2023-12-20T07:27:30;97327.78;;;18.71;48.06
52653;BME280;39353;42.864;12.014;2023-12-20T07:29:57;97325.77;;;18.73;47.93
52653;BME280;39353;42.864;12.014;2023-12-20T07:32:24;97325.65;;;18.72;47.26
52653;BME280;39353;42.864;12.014;2023-12-20T07:34:51;97322.55;;;18.74;47.81
52653;BME280;39353;42.864;12.014;2023-12-20T07:37:18;97323.29;;;18.77;47.40
52653;BME280;39353;42.864;12.014;2023-12-20T07:39:45;97326.52;;;18.77;47.26
52653;BME280;39353;42.864;12.014;2023-12-20T07:42:11;97327.14;;;18.78;47.13
52653;BME280;39353;42.864;12.014;2023-12-20T07:44:38;97321.95;;;18.78;47.13
52653;BME280;39353;42.864;12.014;2023-12-20T07:47:05;97319.89;;;18.80;47.18
52653;BME280;39353;42.864;12.014;2023-12-20T07:49:32;97320.02;;;18.80;47.23
52653;BME280;39353;42.864;12.014;2023-12-20T07:51:59;97323.98;;;18.82;47.50
52653;BME280;39353;42.864;12.014;2023-12-20T07:54:26;97326.30;;;18.85;47.57
52653;BME280;39353;42.864;12.014;2023-12-20T07:56:53;97321.95;;;18.78;44.65
52653;BME280;39353;42.864;12.014;2023-12-20T07:59:20;97325.07;;;18.69;45.18
52653;BME280;39353;42.864;12.014;2023-12-20T08:01:46;97325.33;;;18.68;46.07
52653;BME280;39353;42.864;12.014;2023-12-20T08:04:13;97323.90;;;18.68;46.24
52653;BME280;39353;42.864;12.014;2023-12-20T08:06:40;97318.88;;;18.69;46.37
52653;BME280;39353;42.864;12.014;2023-12-20T08:09:06;97324.23;;;18.70;46.53
52653;BME280;39353;42.864;12.014;2023-12-20T08:11:33;97320.90;;;18.69;46.54
52653;BME280;39353;42.864;12.014;2023-12-20T08:14:00;97318.25;;;18.68;46.76
52653;BME280;39353;42.864;12.014;2023-12-20T08:16:27;97313.83;;;18.69;46.80
52653;BME280;39353;42.864;12.014;2023-12-20T08:18:54;97314.59;;;18.69;46.82
52653;BME280;39353;42.864;12.014;2023-12-20T08:21:21;97318.88;;;18.66;45.89
52653;BME280;39353;42.864;12.014;2023-12-20T08:23:49;97323.29;;;18.64;46.26
52653;BME280;39353;42.864;12.014;2023-12-20T08:26:18;97328.84;;;18.63;46.14
52653;BME280;39353;42.864;12.014;2023-12-20T08:28:46;97333.85;;;18.63;46.27
52653;BME280;39353;42.864;12.014;2023-12-20T08:31:15;97330.59;;;18.63;46.53
52653;BME280;39353;42.864;12.014;2023-12-20T08:33:48;97321.61;;;18.63;46.44
52653;BME280;39353;42.864;12.014;2023-12-20T08:36:16;97323.07;;;18.64;46.79
52653;BME280;39353;42.864;12.014;2023-12-20T08:38:44;97318.17;;;18.65;46.69
52653;BME280;39353;42.864;12.014;2023-12-20T08:41:11;97311.69;;;18.66;46.78
52653;BME280;39353;42.864;12.014;2023-12-20T08:43:37;97304.89;;;18.68;46.94
52653;BME280;39353;42.864;12.014;2023-12-20T08:46:08;97304.34;;;18.71;46.97
52653;BME280;39353;42.864;12.014;2023-12-20T08:48:36;97297.92;;;18.74;46.82
52653;BME280;39353;42.864;12.014;2023-12-20T08:51:04;97291.42;;;18.76;46.92
52653;BME280;39353;42.864;12.014;2023-12-20T08:53:35;97284.27;;;18.78;46.79
52653;BME280;39353;42.864;12.014;2023-12-20T08:56:02;97285.98;;;18.79;46.94
52653;BME280;39353;42.864;12.014;2023-12-20T08:58:28;97290.66;;;18.81;46.88
52653;BME280;39353;42.864;12.014;2023-12-20T09:00:55;97288.69;;;18.74;43.21
52653;BME280;39353;42.864;12.014;2023-12-20T09:03:24;97294.45;;;18.36;39.23
52653;BME280;39353;42.864;12.014;2023-12-20T09:05:51;97294.88;;;18.14;40.71
52653;BME280;39353;42.864;12.014;2023-12-20T09:08:18;97297.94;;;18.19;42.94
52653;BME280;39353;42.864;12.014;2023-12-20T09:10:44;97302.73;;;18.28;43.68
52653;BME280;39353;42.864;12.014;2023-12-20T09:16:50;97301.45;;;18.42;43.46
52653;BME280;39353;42.864;12.014;2023-12-20T09:19:17;97302.70;;;18.46;43.18
52653;BME280;39353;42.864;12.014;2023-12-20T09:21:44;97299.25;;;18.50;42.98
52653;BME280;39353;42.864;12.014;2023-12-20T09:24:11;97297.15;;;18.52;42.96
52653;BME280;39353;42.864;12.014;2023-12-20T09:26:38;97292.71;;;18.54;43.12
52653;BME280;39353;42.864;12.014;2023-12-20T09:29:06;97292.66;;;18.55;42.97
52653;BME280;39353;42.864;12.014;2023-12-20T09:31:36;97289.60;;;18.58;42.96
52653;BME280;39353;42.864;12.014;2023-12-20T09:34:07;97290.90;;;18.55;41.81
52653;BME280;39353;42.864;12.014;2023-12-20T09:36:33;97286.52;;;18.45;42.23
52653;BME280;39353;42.864;12.014;2023-12-20T09:39:02;97285.19;;;18.44;42.71
52653;BME280;39353;42.864;12.014;2023-12-20T09:41:32;97283.63;;;18.47;42.94
52653;BME280;39353;42.864;12.014;2023-12-20T09:44:03;97273.19;;;18.45;42.78
52653;BME280;39353;42.864;12.014;2023-12-20T09:46:32;97267.58;;;18.46;43.13
52653;BME280;39353;42.864;12.014;2023-12-20T09:49:02;97268.79;;;18.49;43.49
52653;BME280;39353;42.864;12.014;2023-12-20T09:51:30;97270.11;;;18.51;43.64
52653;BME280;39353;42.864;12.014;2023-12-20T09:53:58;97268.10;;;18.53;43.77
52653;BME280;39353;42.864;12.014;2023-12-20T09:56:27;97268.71;;;18.54;43.95
52653;BME280;39353;42.864;12.014;2023-12-20T09:58:56;97261.47;;;18.56;44.19
52653;BME280;39353;42.864;12.014;2023-12-20T10:01:23;97260.42;;;18.57;44.29
52653;BME280;39353;42.864;12.014;2023-12-20T10:03:52;97261.55;;;18.57;44.33
52653;BME280;39353;42.864;12.014;2023-12-20T10:06:21;97263.19;;;18.57;44.45
52653;BME280;39353;42.864;12.014;2023-12-20T10:08:48;97262.40;;;18.56;44.53
52653;BME280;39353;42.864;12.014;2023-12-20T10:11:15;97253.83;;;18.55;44.63
52653;BME280;39353;42.864;12.014;2023-12-20T10:13:42;97243.70;;;18.55;44.99
52653;BME280;39353;42.864;12.014;2023-12-20T10:16:10;97234.23;;;18.54;45.09
52653;BME280;39353;42.864;12.014;2023-12-20T10:18:37;97227.13;;;18.54;45.05
52653;BME280;39353;42.864;12.014;2023-12-20T10:21:04;97219.78;;;18.54;45.11
52653;BME280;39353;42.864;12.014;2023-12-20T10:23:31;97222.08;;;18.54;44.67
52653;BME280;39353;42.864;12.014;2023-12-20T10:25:59;97230.19;;;18.53;44.70
52653;BME280;39353;42.864;12.014;2023-12-20T10:28:33;97226.02;;;18.50;44.89
52653;BME280;39353;42.864;12.014;2023-12-20T10:31:00;97213.57;;;18.49;44.91
52653;BME280;39353;42.864;12.014;2023-12-20T10:33:30;97204.29;;;18.49;44.99
52653;BME280;39353;42.864;12.014;2023-12-20T10:35:58;97200.14;;;18.51;45.18
52653;BME280;39353;42.864;12.014;2023-12-20T10:38:25;97193.73;;;18.54;45.52
52653;BME280;39353;42.864;12.014;2023-12-20T10:40:56;97195.70;;;18.60;45.62
52653;BME280;39353;42.864;12.014;2023-12-20T10:43:28;97203.08;;;18.65;45.73
52653;BME280;39353;42.864;12.014;2023-12-20T10:45:58;97205.11;;;18.67;45.83
52653;BME280;39353;42.864;12.014;2023-12-20T10:48:26;97197.35;;;18.69;46.12
52653;BME280;39353;42.864;12.014;2023-12-20T10:50:57;97195.28;;;18.72;46.57
52653;BME280;39353;42.864;12.014;2023-12-20T10:53:25;97196.52;;;18.73;46.87
52653;BME280;39353;42.864;12.014;2023-12-20T10:55:55;97198.86;;;18.75;47.49
52653;BME280;39353;42.864;12.014;2023-12-20T10:58:24;97192.20;;;18.77;47.32
52653;BME280;39353;42.864;12.014;2023-12-20T11:01:00;97183.67;;;18.79;47.59
52653;BME280;39353;42.864;12.014;2023-12-20T11:03:32;97179.96;;;18.80;47.79
52653;BME280;39353;42.864;12.014;2023-12-20T11:06:15;97177.86;;;18.82;48.10
52653;BME280;39353;42.864;12.014;2023-12-20T11:09:03;97176.46;;;18.83;48.35
52653;BME280;39353;42.864;12.014;2023-12-20T11:14:25;97166.02;;;18.83;48.62
52653;BME280;39353;42.864;12.014;2023-12-20T11:17:10;97167.95;;;18.82;48.70
52653;BME280;39353;42.864;12.014;2023-12-20T11:22:20;97158.63;;;18.81;48.51
52653;BME280;39353;42.864;12.014;2023-12-20T11:24:48;97148.17;;;18.81;48.70
52653;BME280;39353;42.864;12.014;2023-12-20T11:27:21;97144.91;;;18.81;48.80
52653;BME280;39353;42.864;12.014;2023-12-20T11:29:52;97144.17;;;18.80;48.54
52653;BME280;39353;42.864;12.014;2023-12-20T11:34:55;97141.81;;;18.77;48.48
52653;BME280;39353;42.864;12.014;2023-12-20T11:37:29;97141.65;;;18.76;48.25
52653;BME280;39353;42.864;12.014;2023-12-20T11:40:05;97136.06;;;18.73;48.30
52653;BME280;39353;42.864;12.014;2023-12-20T11:42:39;97128.57;;;18.70;48.08
52653;BME280;39353;42.864;12.014;2023-12-20T11:45:11;97121.10;;;18.67;47.81
52653;BME280;39353;42.864;12.014;2023-12-20T11:47:38;97114.36;;;18.65;47.67
52653;BME280;39353;42.864;12.014;2023-12-20T11:50:06;97113.03;;;18.63;47.38
52653;BME280;39353;42.864;12.014;2023-12-20T11:52:33;97110.52;;;18.60;47.44
52653;BME280;39353;42.864;12.014;2023-12-20T11:54:59;97106.63;;;18.60;47.50
52653;BME280;39353;42.864;12.014;2023-12-20T11:57:27;97106.13;;;18.58;47.54
52653;BME280;39353;42.864;12.014;2023-12-20T11:59:54;97103.46;;;18.56;47.47
52653;BME280;39353;42.864;12.014;2023-12-20T12:02:21;97096.90;;;18.55;47.30
52653;BME280;39353;42.864;12.014;2023-12-20T12:04:51;97090.40;;;18.54;47.50
52653;BME280;39353;42.864;12.014;2023-12-20T12:07:17;97090.02;;;18.54;47.53
52653;BME280;39353;42.864;12.014;2023-12-20T12:09:45;97084.27;;;18.52;47.61
52653;BME280;39353;42.864;12.014;2023-12-20T12:12:13;97080.13;;;18.52;47.61
52653;BME280;39353;42.864;12.014;2023-12-20T12:14:40;97072.58;;;18.51;47.50
52653;BME280;39353;42.864;12.014;2023-12-20T12:17:14;97065.78;;;18.49;47.47
52653;BME280;39353;42.864;12.014;2023-12-20T12:19:42;97057.10;;;18.48;47.54
52653;BME280;39353;42.864;12.014;2023-12-20T12:22:12;97050.91;;;18.48;47.41
52653;BME280;39353;42.864;12.014;2023-12-20T12:24:41;97052.19;;;18.49;47.25
52653;BME280;39353;42.864;12.014;2023-12-20T12:27:09;97050.60;;;18.50;47.29
52653;BME280;39353;42.864;12.014;2023-12-20T12:29:37;97047.08;;;18.50;47.18
52653;BME280;39353;42.864;12.014;2023-12-20T12:32:08;97042.17;;;18.52;47.45
52653;BME280;39353;42.864;12.014;2023-12-20T12:34:36;97042.47;;;18.54;47.69
52653;BME280;39353;42.864;12.014;2023-12-20T12:37:06;97043.43;;;18.53;47.60
52653;BME280;39353;42.864;12.014;2023-12-20T12:39:34;97041.83;;;18.54;47.75
52653;BME280;39353;42.864;12.014;2023-12-20T12:42:00;97036.89;;;18.54;47.79
52653;BME280;39353;42.864;12.014;2023-12-20T12:44:27;97036.89;;;18.54;47.71
52653;BME280;39353;42.864;12.014;2023-12-20T12:46:54;97039.77;;;18.54;47.76
52653;BME280;39353;42.864;12.014;2023-12-20T12:49:21;97043.95;;;18.56;47.88
52653;BME280;39353;42.864;12.014;2023-12-20T12:51:48;97042.39;;;18.56;48.05
52653;BME280;39353;42.864;12.014;2023-12-20T12:54:15;97039.31;;;18.59;47.90
52653;BME280;39353;42.864;12.014;2023-12-20T12:56:44;97037.98;;;18.59;47.93
52653;BME280;39353;42.864;12.014;2023-12-20T12:59:11;97035.92;;;18.62;47.83
52653;BME280;39353;42.864;12.014;2023-12-20T13:01:38;97027.34;;;18.62;47.76
52653;BME280;39353;42.864;12.014;2023-12-20T13:04:05;97024.55;;;18.63;47.88